sensor_id;sensor_type;location;lat;lon;timestamp;P1;durP1;ratioP1;P2;durP2;ratioP2
33148;SDS011;19506;51.040;3.856;2023-05-16T00:00:18;17.25;;;6.75;;
33148;SDS011;19506;51.040;3.856;2023-05-16T00:02:44;21.05;;;6.55;;
33148;SDS011;19506;51.040;3.856;2023-05-16T00:05:10;17.98;;;6.10;;
33148;SDS011;19506;51.040;3.856;2023-05-16T00:07:38;18.23;;;6.68;;
33148;SDS011;19506;51.040;3.856;2023-05-16T00:10:06;14.63;;;6.75;;
33148;SDS011;19506;51.040;3.856;2023-05-16T00:12:32;20.15;;;6.70;;
33148;SDS011;19506;51.040;3.856;2023-05-16T00:15:00;21.65;;;6.72;;
33148;SDS011;19506;51.040;3.856;2023-05-16T00:17:26;15.65;;;5.93;;
33148;SDS011;19506;51.040;3.856;2023-05-16T00:19:53;18.17;;;6.80;;
33148;SDS011;19506;51.040;3.856;2023-05-16T00:22:22;14.15;;;6.45;;
33148;SDS011;19506;51.040;3.856;2023-05-16T00:24:48;14.50;;;6.15;;
33148;SDS011;19506;51.040;3.856;2023-05-16T00:27:14;15.07;;;6.40;;
33148;SDS011;19506;51.040;3.856;2023-05-16T00:29:40;16.90;;;6.95;;
33148;SDS011;19506;51.040;3.856;2023-05-16T00:32:05;15.88;;;6.15;;
33148;SDS011;19506;51.040;3.856;2023-05-16T00:34:32;19.23;;;6.53;;
33148;SDS011;19506;51.040;3.856;2023-05-16T00:36:58;17.58;;;6.38;;
33148;SDS011;19506;51.040;3.856;2023-05-16T00:39:24;17.25;;;6.13;;
33148;SDS011;19506;51.040;3.856;2023-05-16T00:41:50;20.17;;;7.00;;
33148;SDS011;19506;51.040;3.856;2023-05-16T00:44:16;18.13;;;6.63;;
33148;SDS011;19506;51.040;3.856;2023-05-16T00:46:42;17.10;;;6.65;;
33148;SDS011;19506;51.040;3.856;2023-05-16T00:49:08;15.30;;;6.68;;
33148;SDS011;19506;51.040;3.856;2023-05-16T00:51:35;19.25;;;6.15;;
33148;SDS011;19506;51.040;3.856;2023-05-16T00:54:03;15.05;;;6.25;;
33148;SDS011;19506;51.040;3.856;2023-05-16T00:56:30;18.35;;;7.30;;
33148;SDS011;19506;51.040;3.856;2023-05-16T00:58:56;18.45;;;6.80;;
33148;SDS011;19506;51.040;3.856;2023-05-16T01:01:22;13.38;;;6.10;;
33148;SDS011;19506;51.040;3.856;2023-05-16T01:03:51;15.63;;;6.40;;
33148;SDS011;19506;51.040;3.856;2023-05-16T01:06:17;15.18;;;7.05;;
33148;SDS011;19506;51.040;3.856;2023-05-16T01:08:43;17.25;;;6.20;;
33148;SDS011;19506;51.040;3.856;2023-05-16T01:16:46;17.35;;;6.32;;
33148;SDS011;19506;51.040;3.856;2023-05-16T01:22:11;15.20;;;5.50;;
33148;SDS011;19506;51.040;3.856;2023-05-16T01:27:34;17.67;;;6.40;;
33148;SDS011;19506;51.040;3.856;2023-05-16T01:30:09;18.90;;;6.70;;
33148;SDS011;19506;51.040;3.856;2023-05-16T01:32:39;13.05;;;5.53;;
33148;SDS011;19506;51.040;3.856;2023-05-16T01:35:05;11.55;;;5.38;;
33148;SDS011;19506;51.040;3.856;2023-05-16T01:37:34;12.05;;;5.43;;
33148;SDS011;19506;51.040;3.856;2023-05-16T01:42:32;16.00;;;6.05;;
33148;SDS011;19506;51.040;3.856;2023-05-16T01:45:11;12.85;;;6.03;;
33148;SDS011;19506;51.040;3.856;2023-05-16T01:47:50;20.27;;;6.07;;
33148;SDS011;19506;51.040;3.856;2023-05-16T01:50:24;11.93;;;5.68;;
33148;SDS011;19506;51.040;3.856;2023-05-16T01:52:55;15.25;;;6.05;;
33148;SDS011;19506;51.040;3.856;2023-05-16T01:58:01;12.05;;;5.45;;
33148;SDS011;19506;51.040;3.856;2023-05-16T02:00:29;11.75;;;5.50;;
33148;SDS011;19506;51.040;3.856;2023-05-16T02:02:55;11.02;;;5.28;;
33148;SDS011;19506;51.040;3.856;2023-05-16T02:05:21;10.68;;;5.70;;
33148;SDS011;19506;51.040;3.856;2023-05-16T02:07:47;14.23;;;5.63;;
33148;SDS011;19506;51.040;3.856;2023-05-16T02:10:13;10.23;;;5.13;;
33148;SDS011;19506;51.040;3.856;2023-05-16T02:12:38;14.63;;;6.32;;
33148;SDS011;19506;51.040;3.856;2023-05-16T02:15:04;11.40;;;4.80;;
33148;SDS011;19506;51.040;3.856;2023-05-16T02:17:31;12.10;;;5.13;;
33148;SDS011;19506;51.040;3.856;2023-05-16T02:19:56;13.05;;;5.47;;
33148;SDS011;19506;51.040;3.856;2023-05-16T02:22:22;9.10;;;4.68;;
33148;SDS011;19506;51.040;3.856;2023-05-16T02:24:48;10.65;;;4.38;;
33148;SDS011;19506;51.040;3.856;2023-05-16T02:27:13;11.68;;;5.65;;
33148;SDS011;19506;51.040;3.856;2023-05-16T02:29:39;11.73;;;5.18;;
33148;SDS011;19506;51.040;3.856;2023-05-16T02:32:05;11.27;;;5.40;;
33148;SDS011;19506;51.040;3.856;2023-05-16T02:34:30;10.48;;;5.30;;
33148;SDS011;19506;51.040;3.856;2023-05-16T02:36:56;13.02;;;5.63;;
33148;SDS011;19506;51.040;3.856;2023-05-16T02:41:47;14.25;;;5.63;;
33148;SDS011;19506;51.040;3.856;2023-05-16T02:44:13;11.35;;;5.13;;
33148;SDS011;19506;51.040;3.856;2023-05-16T02:46:39;9.27;;;4.65;;
33148;SDS011;19506;51.040;3.856;2023-05-16T02:49:04;11.10;;;4.65;;
33148;SDS011;19506;51.040;3.856;2023-05-16T02:51:30;10.10;;;5.20;;
33148;SDS011;19506;51.040;3.856;2023-05-16T02:53:56;14.18;;;4.90;;
33148;SDS011;19506;51.040;3.856;2023-05-16T02:56:23;9.63;;;5.10;;
33148;SDS011;19506;51.040;3.856;2023-05-16T02:58:50;11.60;;;5.25;;
33148;SDS011;19506;51.040;3.856;2023-05-16T03:01:17;9.65;;;5.57;;
33148;SDS011;19506;51.040;3.856;2023-05-16T03:03:43;8.27;;;4.20;;
33148;SDS011;19506;51.040;3.856;2023-05-16T03:06:08;11.13;;;4.95;;
33148;SDS011;19506;51.040;3.856;2023-05-16T03:08:34;9.10;;;4.50;;
33148;SDS011;19506;51.040;3.856;2023-05-16T03:11:00;11.57;;;4.93;;
33148;SDS011;19506;51.040;3.856;2023-05-16T03:13:26;11.77;;;4.90;;
33148;SDS011;19506;51.040;3.856;2023-05-16T03:15:54;9.15;;;4.65;;
33148;SDS011;19506;51.040;3.856;2023-05-16T03:18:19;8.50;;;4.45;;
33148;SDS011;19506;51.040;3.856;2023-05-16T03:20:45;9.05;;;4.45;;
33148;SDS011;19506;51.040;3.856;2023-05-16T03:23:11;9.70;;;5.28;;
33148;SDS011;19506;51.040;3.856;2023-05-16T03:25:37;9.88;;;5.03;;
33148;SDS011;19506;51.040;3.856;2023-05-16T03:28:04;12.57;;;4.82;;
33148;SDS011;19506;51.040;3.856;2023-05-16T03:30:30;8.00;;;4.78;;
33148;SDS011;19506;51.040;3.856;2023-05-16T03:32:56;10.57;;;4.88;;
33148;SDS011;19506;51.040;3.856;2023-05-16T03:35:22;11.70;;;5.75;;
33148;SDS011;19506;51.040;3.856;2023-05-16T03:37:48;11.07;;;5.05;;
33148;SDS011;19506;51.040;3.856;2023-05-16T03:42:39;8.32;;;4.22;;
33148;SDS011;19506;51.040;3.856;2023-05-16T03:45:05;8.80;;;3.97;;
33148;SDS011;19506;51.040;3.856;2023-05-16T03:47:33;9.65;;;4.13;;
33148;SDS011;19506;51.040;3.856;2023-05-16T03:52:24;8.77;;;4.03;;
33148;SDS011;19506;51.040;3.856;2023-05-16T03:54:50;9.38;;;4.03;;
33148;SDS011;19506;51.040;3.856;2023-05-16T03:57:16;9.85;;;4.63;;
33148;SDS011;19506;51.040;3.856;2023-05-16T03:59:41;9.02;;;4.25;;
33148;SDS011;19506;51.040;3.856;2023-05-16T04:02:07;8.00;;;4.05;;
33148;SDS011;19506;51.040;3.856;2023-05-16T04:04:33;10.82;;;4.57;;
33148;SDS011;19506;51.040;3.856;2023-05-16T04:06:59;10.18;;;3.60;;
33148;SDS011;19506;51.040;3.856;2023-05-16T04:09:28;8.00;;;4.25;;
33148;SDS011;19506;51.040;3.856;2023-05-16T04:14:25;11.65;;;4.50;;
33148;SDS011;19506;51.040;3.856;2023-05-16T04:19:17;9.35;;;4.05;;
33148;SDS011;19506;51.040;3.856;2023-05-16T04:21:42;6.97;;;3.10;;
33148;SDS011;19506;51.040;3.856;2023-05-16T04:24:08;10.27;;;4.47;;
33148;SDS011;19506;51.040;3.856;2023-05-16T04:26:34;7.93;;;3.97;;
33148;SDS011;19506;51.040;3.856;2023-05-16T04:29:01;6.93;;;3.17;;
33148;SDS011;19506;51.040;3.856;2023-05-16T04:31:27;9.55;;;3.95;;
33148;SDS011;19506;51.040;3.856;2023-05-16T04:36:18;8.15;;;4.07;;
33148;SDS011;19506;51.040;3.856;2023-05-16T04:38:44;7.70;;;4.43;;
33148;SDS011;19506;51.040;3.856;2023-05-16T04:41:13;10.73;;;4.00;;
33148;SDS011;19506;51.040;3.856;2023-05-16T04:43:39;10.23;;;4.25;;
33148;SDS011;19506;51.040;3.856;2023-05-16T04:46:06;9.00;;;4.78;;
33148;SDS011;19506;51.040;3.856;2023-05-16T04:50:57;9.13;;;4.07;;
33148;SDS011;19506;51.040;3.856;2023-05-16T04:53:23;10.27;;;4.15;;
33148;SDS011;19506;51.040;3.856;2023-05-16T04:55:49;9.40;;;3.72;;
33148;SDS011;19506;51.040;3.856;2023-05-16T04:58:14;14.75;;;4.63;;
33148;SDS011;19506;51.040;3.856;2023-05-16T05:00:40;9.32;;;4.47;;
33148;SDS011;19506;51.040;3.856;2023-05-16T05:03:06;13.55;;;4.55;;
33148;SDS011;19506;51.040;3.856;2023-05-16T05:05:32;9.18;;;3.90;;
33148;SDS011;19506;51.040;3.856;2023-05-16T05:07:57;13.45;;;4.18;;
33148;SDS011;19506;51.040;3.856;2023-05-16T05:10:24;12.93;;;3.90;;
33148;SDS011;19506;51.040;3.856;2023-05-16T05:12:51;13.85;;;4.35;;
33148;SDS011;19506;51.040;3.856;2023-05-16T05:15:17;14.57;;;4.82;;
33148;SDS011;19506;51.040;3.856;2023-05-16T05:20:09;10.50;;;4.43;;
33148;SDS011;19506;51.040;3.856;2023-05-16T05:22:36;19.08;;;4.38;;
33148;SDS011;19506;51.040;3.856;2023-05-16T05:27:27;14.15;;;4.10;;
33148;SDS011;19506;51.040;3.856;2023-05-16T05:29:53;14.13;;;4.72;;
33148;SDS011;19506;51.040;3.856;2023-05-16T05:34:44;12.80;;;3.78;;
33148;SDS011;19506;51.040;3.856;2023-05-16T05:39:35;13.93;;;4.10;;
33148;SDS011;19506;51.040;3.856;2023-05-16T05:42:01;11.48;;;4.45;;
33148;SDS011;19506;51.040;3.856;2023-05-16T05:44:29;12.80;;;4.05;;
33148;SDS011;19506;51.040;3.856;2023-05-16T05:46:55;11.80;;;4.45;;
33148;SDS011;19506;51.040;3.856;2023-05-16T05:49:22;21.63;;;4.45;;
33148;SDS011;19506;51.040;3.856;2023-05-16T05:51:49;13.98;;;3.78;;
33148;SDS011;19506;51.040;3.856;2023-05-16T05:54:16;16.83;;;4.47;;
33148;SDS011;19506;51.040;3.856;2023-05-16T05:56:43;12.80;;;4.45;;
33148;SDS011;19506;51.040;3.856;2023-05-16T05:59:08;16.98;;;4.55;;
33148;SDS011;19506;51.040;3.856;2023-05-16T06:01:34;17.40;;;4.97;;
33148;SDS011;19506;51.040;3.856;2023-05-16T06:04:00;13.43;;;4.43;;
33148;SDS011;19506;51.040;3.856;2023-05-16T06:06:26;13.38;;;4.07;;
33148;SDS011;19506;51.040;3.856;2023-05-16T06:08:53;11.75;;;3.70;;
33148;SDS011;19506;51.040;3.856;2023-05-16T06:13:45;8.93;;;3.53;;
33148;SDS011;19506;51.040;3.856;2023-05-16T06:16:11;15.82;;;4.50;;
33148;SDS011;19506;51.040;3.856;2023-05-16T06:18:37;16.80;;;3.90;;
33148;SDS011;19506;51.040;3.856;2023-05-16T06:21:03;11.68;;;3.80;;
33148;SDS011;19506;51.040;3.856;2023-05-16T06:23:29;7.95;;;4.05;;
33148;SDS011;19506;51.040;3.856;2023-05-16T06:25:55;12.93;;;4.47;;
33148;SDS011;19506;51.040;3.856;2023-05-16T06:28:21;7.70;;;3.63;;
33148;SDS011;19506;51.040;3.856;2023-05-16T06:30:48;10.10;;;4.25;;
33148;SDS011;19506;51.040;3.856;2023-05-16T06:33:15;12.88;;;4.63;;
33148;SDS011;19506;51.040;3.856;2023-05-16T06:35:42;11.20;;;3.70;;
33148;SDS011;19506;51.040;3.856;2023-05-16T06:38:07;9.68;;;4.30;;
33148;SDS011;19506;51.040;3.856;2023-05-16T06:40:33;9.93;;;4.13;;
33148;SDS011;19506;51.040;3.856;2023-05-16T06:42:59;15.48;;;5.03;;
33148;SDS011;19506;51.040;3.856;2023-05-16T06:45:25;20.73;;;5.25;;
33148;SDS011;19506;51.040;3.856;2023-05-16T06:47:50;14.00;;;5.35;;
33148;SDS011;19506;51.040;3.856;2023-05-16T06:50:16;13.50;;;5.57;;
33148;SDS011;19506;51.040;3.856;2023-05-16T06:52:42;16.88;;;6.53;;
33148;SDS011;19506;51.040;3.856;2023-05-16T06:55:07;13.90;;;5.18;;
33148;SDS011;19506;51.040;3.856;2023-05-16T06:57:33;11.77;;;5.22;;
33148;SDS011;19506;51.040;3.856;2023-05-16T06:59:59;11.25;;;5.82;;
33148;SDS011;19506;51.040;3.856;2023-05-16T07:02:25;10.23;;;5.18;;
33148;SDS011;19506;51.040;3.856;2023-05-16T07:04:50;15.57;;;5.88;;
33148;SDS011;19506;51.040;3.856;2023-05-16T07:07:16;17.92;;;6.22;;
33148;SDS011;19506;51.040;3.856;2023-05-16T07:09:42;16.38;;;7.47;;
33148;SDS011;19506;51.040;3.856;2023-05-16T07:12:08;19.63;;;6.47;;
33148;SDS011;19506;51.040;3.856;2023-05-16T07:14:34;31.17;;;7.18;;
33148;SDS011;19506;51.040;3.856;2023-05-16T07:16:59;13.13;;;5.88;;
33148;SDS011;19506;51.040;3.856;2023-05-16T07:19:25;13.55;;;5.60;;
33148;SDS011;19506;51.040;3.856;2023-05-16T07:21:51;15.10;;;4.60;;
33148;SDS011;19506;51.040;3.856;2023-05-16T07:24:17;13.00;;;5.80;;
33148;SDS011;19506;51.040;3.856;2023-05-16T07:26:43;14.70;;;5.18;;
33148;SDS011;19506;51.040;3.856;2023-05-16T07:29:09;19.45;;;6.05;;
33148;SDS011;19506;51.040;3.856;2023-05-16T07:31:34;14.15;;;5.38;;
33148;SDS011;19506;51.040;3.856;2023-05-16T07:34:00;11.45;;;5.47;;
33148;SDS011;19506;51.040;3.856;2023-05-16T07:36:26;16.88;;;5.63;;
33148;SDS011;19506;51.040;3.856;2023-05-16T07:38:52;15.02;;;6.32;;
33148;SDS011;19506;51.040;3.856;2023-05-16T07:41:17;11.88;;;5.15;;
33148;SDS011;19506;51.040;3.856;2023-05-16T07:43:43;12.40;;;4.78;;
33148;SDS011;19506;51.040;3.856;2023-05-16T07:46:09;18.10;;;6.05;;
33148;SDS011;19506;51.040;3.856;2023-05-16T07:48:35;14.98;;;6.00;;
33148;SDS011;19506;51.040;3.856;2023-05-16T07:51:01;14.38;;;5.38;;
33148;SDS011;19506;51.040;3.856;2023-05-16T07:53:26;10.20;;;4.65;;
33148;SDS011;19506;51.040;3.856;2023-05-16T07:55:52;11.00;;;5.03;;
33148;SDS011;19506;51.040;3.856;2023-05-16T07:58:18;13.65;;;5.60;;
33148;SDS011;19506;51.040;3.856;2023-05-16T08:00:43;13.32;;;5.65;;
33148;SDS011;19506;51.040;3.856;2023-05-16T08:03:09;17.17;;;5.80;;
33148;SDS011;19506;51.040;3.856;2023-05-16T08:05:35;12.00;;;6.00;;
33148;SDS011;19506;51.040;3.856;2023-05-16T08:08:01;13.25;;;5.13;;
33148;SDS011;19506;51.040;3.856;2023-05-16T08:10:26;13.35;;;4.93;;
33148;SDS011;19506;51.040;3.856;2023-05-16T08:12:52;13.70;;;5.53;;
33148;SDS011;19506;51.040;3.856;2023-05-16T08:15:18;16.02;;;5.30;;
33148;SDS011;19506;51.040;3.856;2023-05-16T08:17:45;14.68;;;4.65;;
33148;SDS011;19506;51.040;3.856;2023-05-16T08:20:11;12.20;;;4.72;;
33148;SDS011;19506;51.040;3.856;2023-05-16T08:22:37;13.20;;;4.80;;
33148;SDS011;19506;51.040;3.856;2023-05-16T08:25:02;16.30;;;5.20;;
33148;SDS011;19506;51.040;3.856;2023-05-16T08:27:28;15.45;;;5.45;;
33148;SDS011;19506;51.040;3.856;2023-05-16T08:29:54;16.25;;;5.55;;
33148;SDS011;19506;51.040;3.856;2023-05-16T08:32:20;21.88;;;5.80;;
33148;SDS011;19506;51.040;3.856;2023-05-16T08:34:47;19.23;;;6.53;;
33148;SDS011;19506;51.040;3.856;2023-05-16T08:37:12;19.60;;;5.80;;
33148;SDS011;19506;51.040;3.856;2023-05-16T08:39:38;19.95;;;5.97;;
33148;SDS011;19506;51.040;3.856;2023-05-16T08:42:04;26.85;;;6.97;;
33148;SDS011;19506;51.040;3.856;2023-05-16T08:44:30;30.63;;;7.55;;
33148;SDS011;19506;51.040;3.856;2023-05-16T08:46:56;22.92;;;6.55;;
33148;SDS011;19506;51.040;3.856;2023-05-16T08:49:36;21.90;;;6.75;;
33148;SDS011;19506;51.040;3.856;2023-05-16T08:52:05;22.15;;;6.60;;
33148;SDS011;19506;51.040;3.856;2023-05-16T08:54:32;28.25;;;8.63;;
33148;SDS011;19506;51.040;3.856;2023-05-16T08:56:58;34.95;;;8.98;;
33148;SDS011;19506;51.040;3.856;2023-05-16T08:59:25;40.38;;;9.13;;
33148;SDS011;19506;51.040;3.856;2023-05-16T09:01:51;40.13;;;10.57;;
33148;SDS011;19506;51.040;3.856;2023-05-16T09:04:17;32.42;;;10.10;;
33148;SDS011;19506;51.040;3.856;2023-05-16T09:06:43;61.60;;;10.63;;
33148;SDS011;19506;51.040;3.856;2023-05-16T09:09:09;39.45;;;9.57;;
33148;SDS011;19506;51.040;3.856;2023-05-16T09:11:37;34.92;;;9.60;;
33148;SDS011;19506;51.040;3.856;2023-05-16T09:14:03;38.33;;;9.13;;
33148;SDS011;19506;51.040;3.856;2023-05-16T09:16:29;53.10;;;12.50;;
33148;SDS011;19506;51.040;3.856;2023-05-16T09:18:56;40.20;;;10.32;;
33148;SDS011;19506;51.040;3.856;2023-05-16T09:21:28;52.00;;;10.40;;
33148;SDS011;19506;51.040;3.856;2023-05-16T09:23:56;41.22;;;9.45;;
33148;SDS011;19506;51.040;3.856;2023-05-16T09:26:27;37.33;;;9.57;;
33148;SDS011;19506;51.040;3.856;2023-05-16T09:28:53;38.22;;;9.77;;
33148;SDS011;19506;51.040;3.856;2023-05-16T09:31:22;31.80;;;9.45;;
33148;SDS011;19506;51.040;3.856;2023-05-16T09:33:54;39.63;;;9.40;;
33148;SDS011;19506;51.040;3.856;2023-05-16T09:36:20;33.25;;;10.10;;
33148;SDS011;19506;51.040;3.856;2023-05-16T09:38:46;37.65;;;10.18;;
33148;SDS011;19506;51.040;3.856;2023-05-16T09:41:13;35.05;;;9.55;;
33148;SDS011;19506;51.040;3.856;2023-05-16T09:43:39;29.48;;;8.52;;
33148;SDS011;19506;51.040;3.856;2023-05-16T09:46:07;35.10;;;9.82;;
33148;SDS011;19506;51.040;3.856;2023-05-16T09:48:36;32.95;;;9.15;;
33148;SDS011;19506;51.040;3.856;2023-05-16T09:51:15;28.38;;;8.27;;
33148;SDS011;19506;51.040;3.856;2023-05-16T09:53:46;34.22;;;9.48;;
33148;SDS011;19506;51.040;3.856;2023-05-16T09:56:12;32.42;;;8.45;;
33148;SDS011;19506;51.040;3.856;2023-05-16T09:58:40;32.00;;;8.60;;
33148;SDS011;19506;51.040;3.856;2023-05-16T10:01:07;32.50;;;9.65;;
33148;SDS011;19506;51.040;3.856;2023-05-16T10:03:34;34.83;;;8.57;;
33148;SDS011;19506;51.040;3.856;2023-05-16T10:06:02;28.00;;;8.07;;
33148;SDS011;19506;51.040;3.856;2023-05-16T10:08:30;25.77;;;8.48;;
33148;SDS011;19506;51.040;3.856;2023-05-16T10:11:00;31.52;;;8.68;;
33148;SDS011;19506;51.040;3.856;2023-05-16T10:13:28;23.67;;;7.85;;
33148;SDS011;19506;51.040;3.856;2023-05-16T10:15:55;26.58;;;8.75;;
33148;SDS011;19506;51.040;3.856;2023-05-16T10:18:31;29.50;;;7.82;;
33148;SDS011;19506;51.040;3.856;2023-05-16T10:21:05;28.25;;;8.40;;
33148;SDS011;19506;51.040;3.856;2023-05-16T10:23:34;32.17;;;9.38;;
33148;SDS011;19506;51.040;3.856;2023-05-16T10:26:02;26.63;;;8.02;;
33148;SDS011;19506;51.040;3.856;2023-05-16T10:28:30;29.42;;;8.18;;
33148;SDS011;19506;51.040;3.856;2023-05-16T10:30:56;24.55;;;7.32;;
33148;SDS011;19506;51.040;3.856;2023-05-16T10:33:23;26.45;;;7.20;;
33148;SDS011;19506;51.040;3.856;2023-05-16T10:35:49;30.05;;;7.82;;
33148;SDS011;19506;51.040;3.856;2023-05-16T10:38:15;22.15;;;7.72;;
33148;SDS011;19506;51.040;3.856;2023-05-16T10:40:42;16.20;;;7.13;;
33148;SDS011;19506;51.040;3.856;2023-05-16T10:43:08;21.42;;;8.38;;
33148;SDS011;19506;51.040;3.856;2023-05-16T10:45:38;27.05;;;9.40;;
33148;SDS011;19506;51.040;3.856;2023-05-16T10:48:05;17.15;;;6.60;;
33148;SDS011;19506;51.040;3.856;2023-05-16T10:53:20;21.27;;;7.35;;
33148;SDS011;19506;51.040;3.856;2023-05-16T11:06:23;26.10;;;7.82;;
33148;SDS011;19506;51.040;3.856;2023-05-16T11:09:24;17.08;;;6.10;;
33148;SDS011;19506;51.040;3.856;2023-05-16T11:12:01;29.88;;;7.38;;
33148;SDS011;19506;51.040;3.856;2023-05-16T11:20:05;21.60;;;5.78;;
33148;SDS011;19506;51.040;3.856;2023-05-16T11:22:32;14.68;;;5.90;;
33148;SDS011;19506;51.040;3.856;2023-05-16T11:24:59;17.05;;;5.18;;
33148;SDS011;19506;51.040;3.856;2023-05-16T11:32:31;11.65;;;4.95;;
33148;SDS011;19506;51.040;3.856;2023-05-16T11:34:59;12.60;;;5.90;;
33148;SDS011;19506;51.040;3.856;2023-05-16T11:37:26;13.50;;;5.70;;
33148;SDS011;19506;51.040;3.856;2023-05-16T11:39:52;18.92;;;5.88;;
33148;SDS011;19506;51.040;3.856;2023-05-16T11:42:22;15.90;;;5.85;;
33148;SDS011;19506;51.040;3.856;2023-05-16T11:44:48;23.73;;;5.97;;
33148;SDS011;19506;51.040;3.856;2023-05-16T11:47:14;18.58;;;6.32;;
33148;SDS011;19506;51.040;3.856;2023-05-16T11:49:39;19.92;;;5.95;;
33148;SDS011;19506;51.040;3.856;2023-05-16T11:52:06;16.55;;;6.03;;
33148;SDS011;19506;51.040;3.856;2023-05-16T11:54:33;22.83;;;7.47;;
33148;SDS011;19506;51.040;3.856;2023-05-16T11:56:59;19.98;;;6.35;;
33148;SDS011;19506;51.040;3.856;2023-05-16T11:59:25;13.13;;;5.18;;
33148;SDS011;19506;51.040;3.856;2023-05-16T12:01:51;24.08;;;6.10;;
33148;SDS011;19506;51.040;3.856;2023-05-16T12:04:17;26.30;;;6.65;;
33148;SDS011;19506;51.040;3.856;2023-05-16T12:06:56;15.48;;;5.55;;
33148;SDS011;19506;51.040;3.856;2023-05-16T12:09:22;18.55;;;5.80;;
33148;SDS011;19506;51.040;3.856;2023-05-16T12:11:48;18.35;;;6.57;;
33148;SDS011;19506;51.040;3.856;2023-05-16T12:14:16;20.45;;;6.10;;
33148;SDS011;19506;51.040;3.856;2023-05-16T12:16:43;30.73;;;8.02;;
33148;SDS011;19506;51.040;3.856;2023-05-16T12:19:10;19.35;;;6.28;;
33148;SDS011;19506;51.040;3.856;2023-05-16T12:21:37;19.40;;;7.28;;
33148;SDS011;19506;51.040;3.856;2023-05-16T12:24:03;23.65;;;5.90;;
33148;SDS011;19506;51.040;3.856;2023-05-16T12:26:29;22.00;;;6.35;;
33148;SDS011;19506;51.040;3.856;2023-05-16T12:28:57;28.00;;;7.45;;
33148;SDS011;19506;51.040;3.856;2023-05-16T12:31:27;19.15;;;6.65;;
33148;SDS011;19506;51.040;3.856;2023-05-16T12:33:54;24.50;;;6.15;;
33148;SDS011;19506;51.040;3.856;2023-05-16T12:36:21;21.52;;;7.05;;
33148;SDS011;19506;51.040;3.856;2023-05-16T12:38:48;25.90;;;6.63;;
33148;SDS011;19506;51.040;3.856;2023-05-16T12:41:17;23.38;;;7.00;;
33148;SDS011;19506;51.040;3.856;2023-05-16T12:43:44;23.73;;;6.72;;
33148;SDS011;19506;51.040;3.856;2023-05-16T12:46:10;28.00;;;7.10;;
33148;SDS011;19506;51.040;3.856;2023-05-16T12:48:38;15.57;;;6.63;;
33148;SDS011;19506;51.040;3.856;2023-05-16T12:51:18;22.65;;;7.38;;
33148;SDS011;19506;51.040;3.856;2023-05-16T12:53:47;15.55;;;5.68;;
33148;SDS011;19506;51.040;3.856;2023-05-16T12:56:14;23.80;;;5.68;;
33148;SDS011;19506;51.040;3.856;2023-05-16T12:58:40;21.38;;;5.93;;
33148;SDS011;19506;51.040;3.856;2023-05-16T13:01:07;18.23;;;6.00;;
33148;SDS011;19506;51.040;3.856;2023-05-16T13:03:33;16.52;;;5.53;;
33148;SDS011;19506;51.040;3.856;2023-05-16T13:05:59;16.45;;;5.55;;
33148;SDS011;19506;51.040;3.856;2023-05-16T13:08:25;20.92;;;5.85;;
33148;SDS011;19506;51.040;3.856;2023-05-16T13:10:51;23.70;;;6.28;;
33148;SDS011;19506;51.040;3.856;2023-05-16T13:13:17;12.65;;;4.65;;
33148;SDS011;19506;51.040;3.856;2023-05-16T13:15:43;26.90;;;6.47;;
33148;SDS011;19506;51.040;3.856;2023-05-16T13:18:09;17.65;;;5.75;;
33148;SDS011;19506;51.040;3.856;2023-05-16T13:20:35;20.80;;;5.20;;
33148;SDS011;19506;51.040;3.856;2023-05-16T13:23:03;16.65;;;6.25;;
33148;SDS011;19506;51.040;3.856;2023-05-16T13:25:29;15.85;;;5.95;;
33148;SDS011;19506;51.040;3.856;2023-05-16T13:27:58;19.55;;;4.80;;
33148;SDS011;19506;51.040;3.856;2023-05-16T13:30:24;15.43;;;4.95;;
33148;SDS011;19506;51.040;3.856;2023-05-16T13:32:50;10.85;;;4.95;;
33148;SDS011;19506;51.040;3.856;2023-05-16T13:35:18;18.88;;;4.65;;
33148;SDS011;19506;51.040;3.856;2023-05-16T13:37:44;11.45;;;5.15;;
33148;SDS011;19506;51.040;3.856;2023-05-16T13:40:10;12.18;;;4.65;;
33148;SDS011;19506;51.040;3.856;2023-05-16T13:42:36;15.88;;;5.97;;
33148;SDS011;19506;51.040;3.856;2023-05-16T13:45:03;16.00;;;5.15;;
33148;SDS011;19506;51.040;3.856;2023-05-16T13:47:29;12.18;;;4.53;;
33148;SDS011;19506;51.040;3.856;2023-05-16T13:49:57;11.05;;;3.92;;
33148;SDS011;19506;51.040;3.856;2023-05-16T13:52:23;12.95;;;4.60;;
33148;SDS011;19506;51.040;3.856;2023-05-16T13:54:49;10.45;;;4.00;;
33148;SDS011;19506;51.040;3.856;2023-05-16T13:57:15;12.63;;;4.45;;
33148;SDS011;19506;51.040;3.856;2023-05-16T13:59:41;9.60;;;3.80;;
33148;SDS011;19506;51.040;3.856;2023-05-16T14:02:07;11.40;;;3.63;;
33148;SDS011;19506;51.040;3.856;2023-05-16T14:04:32;15.05;;;4.75;;
33148;SDS011;19506;51.040;3.856;2023-05-16T14:06:58;13.30;;;4.30;;
33148;SDS011;19506;51.040;3.856;2023-05-16T14:09:24;18.45;;;4.60;;
33148;SDS011;19506;51.040;3.856;2023-05-16T14:11:49;11.07;;;4.35;;
33148;SDS011;19506;51.040;3.856;2023-05-16T14:14:15;11.63;;;4.95;;
33148;SDS011;19506;51.040;3.856;2023-05-16T14:16:41;15.68;;;5.25;;
33148;SDS011;19506;51.040;3.856;2023-05-16T14:19:09;16.17;;;5.05;;
33148;SDS011;19506;51.040;3.856;2023-05-16T14:21:35;14.75;;;5.05;;
33148;SDS011;19506;51.040;3.856;2023-05-16T14:24:01;16.27;;;5.13;;
33148;SDS011;19506;51.040;3.856;2023-05-16T14:26:27;14.02;;;6.03;;
33148;SDS011;19506;51.040;3.856;2023-05-16T14:28:53;17.23;;;4.78;;
33148;SDS011;19506;51.040;3.856;2023-05-16T14:31:21;14.93;;;5.30;;
33148;SDS011;19506;51.040;3.856;2023-05-16T14:33:47;16.85;;;4.88;;
33148;SDS011;19506;51.040;3.856;2023-05-16T14:36:12;17.77;;;3.88;;
33148;SDS011;19506;51.040;3.856;2023-05-16T14:38:38;16.23;;;4.85;;
33148;SDS011;19506;51.040;3.856;2023-05-16T14:41:04;11.35;;;3.92;;
33148;SDS011;19506;51.040;3.856;2023-05-16T14:43:30;15.93;;;4.18;;
33148;SDS011;19506;51.040;3.856;2023-05-16T14:45:56;12.57;;;3.97;;
33148;SDS011;19506;51.040;3.856;2023-05-16T14:48:22;10.55;;;4.50;;
33148;SDS011;19506;51.040;3.856;2023-05-16T14:50:47;14.18;;;4.05;;
33148;SDS011;19506;51.040;3.856;2023-05-16T14:53:13;15.15;;;4.15;;
33148;SDS011;19506;51.040;3.856;2023-05-16T14:55:39;12.60;;;3.63;;
33148;SDS011;19506;51.040;3.856;2023-05-16T14:58:05;7.47;;;3.45;;
33148;SDS011;19506;51.040;3.856;2023-05-16T15:00:30;16.48;;;5.25;;
33148;SDS011;19506;51.040;3.856;2023-05-16T15:02:56;12.40;;;4.13;;
33148;SDS011;19506;51.040;3.856;2023-05-16T15:05:22;9.40;;;4.20;;
33148;SDS011;19506;51.040;3.856;2023-05-16T15:07:49;13.88;;;4.07;;
33148;SDS011;19506;51.040;3.856;2023-05-16T15:10:15;20.38;;;4.00;;
33148;SDS011;19506;51.040;3.856;2023-05-16T15:12:41;14.48;;;4.53;;
33148;SDS011;19506;51.040;3.856;2023-05-16T15:15:08;12.13;;;3.70;;
33148;SDS011;19506;51.040;3.856;2023-05-16T15:17:35;17.85;;;5.60;;
33148;SDS011;19506;51.040;3.856;2023-05-16T15:20:02;15.23;;;3.53;;
33148;SDS011;19506;51.040;3.856;2023-05-16T15:22:30;16.45;;;4.07;;
33148;SDS011;19506;51.040;3.856;2023-05-16T15:24:56;9.23;;;3.50;;
33148;SDS011;19506;51.040;3.856;2023-05-16T15:27:22;13.35;;;3.63;;
33148;SDS011;19506;51.040;3.856;2023-05-16T15:29:47;16.05;;;4.25;;
33148;SDS011;19506;51.040;3.856;2023-05-16T15:32:13;15.85;;;4.65;;
33148;SDS011;19506;51.040;3.856;2023-05-16T15:34:39;9.85;;;4.18;;
33148;SDS011;19506;51.040;3.856;2023-05-16T15:37:04;11.18;;;3.10;;
33148;SDS011;19506;51.040;3.856;2023-05-16T15:39:30;14.32;;;4.38;;
33148;SDS011;19506;51.040;3.856;2023-05-16T15:41:56;16.58;;;3.92;;